Monte Belo, Brazil
Current Conditions -  °F | °C
As of 4:00 PM on Friday 19 Dec 2014 (Local Time) from SBPC Reporting Station
Broken Clouds Broken Clouds  
Wind Chill: 81°   Ceiling: 2000
Heat Index: 83°   Visibility: 6mi
Dew Point: 68°   Wind: 5mph
Humidity: 65%   Direction: 140°SE
Pressure: 29.94"   Gusts: NA
Location:  21.33°S, 46.37°W
Report Text: SBPC 191800Z 14004KT 9999 BKN020 27/20 Q1014
Loading
Personal Weather Stations






























Interactive Weather Map New forecast layout! Learn more

10-Day Weather Forecast

Advertisements
Track Severe Weather on mobile